createdAt,value
2023-06-02T00:00:47.793Z,29.98
2023-06-02T00:02:14.798Z,29.98
2023-06-02T00:03:22.424Z,29.97
2023-06-02T00:04:29.578Z,29.98
2023-06-02T00:05:37.313Z,29.98
2023-06-02T00:06:48.589Z,29.98
2023-06-02T00:07:57.917Z,29.98
2023-06-02T00:09:13.389Z,29.98
2023-06-02T00:10:20.106Z,29.98
2023-06-02T00:11:28.000Z,29.98
2023-06-02T00:12:34.568Z,29.98
2023-06-02T00:13:41.654Z,29.98
2023-06-02T00:14:50.318Z,29.98
2023-06-02T00:15:57.286Z,29.99
2023-06-02T00:17:05.464Z,29.99
2023-06-02T00:18:12.625Z,29.99
2023-06-02T00:19:21.412Z,29.99
2023-06-02T00:20:31.514Z,29.99
2023-06-02T00:21:38.893Z,29.98
2023-06-02T00:22:45.766Z,29.99
2023-06-02T00:23:53.537Z,29.99
2023-06-02T00:25:00.433Z,29.99
2023-06-02T00:26:08.485Z,29.99
2023-06-02T00:27:15.721Z,29.99
2023-06-02T00:28:23.293Z,29.99
2023-06-02T00:29:30.290Z,29.99
2023-06-02T00:30:37.900Z,29.99
2023-06-02T00:31:44.656Z,29.99
2023-06-02T00:32:51.564Z,29.99
2023-06-02T00:34:01.845Z,29.99
2023-06-02T00:35:09.517Z,29.99
2023-06-02T00:36:16.814Z,29.99
2023-06-02T00:37:23.604Z,29.99
2023-06-02T00:38:30.849Z,29.99
2023-06-02T00:39:37.709Z,29.99
2023-06-02T00:40:44.636Z,29.99
2023-06-02T00:41:51.400Z,29.99
2023-06-02T00:42:58.450Z,29.99
2023-06-02T00:44:05.566Z,29.99
2023-06-02T00:45:12.926Z,29.99
2023-06-02T00:46:19.726Z,30.00
2023-06-02T00:47:26.656Z,30.00
2023-06-02T00:48:33.487Z,30.00
2023-06-02T00:49:40.900Z,29.99
2023-06-02T00:50:48.192Z,30.00
2023-06-02T00:51:55.077Z,30.00
2023-06-02T00:53:02.774Z,30.00
2023-06-02T00:54:11.150Z,29.99
2023-06-02T00:55:19.596Z,30.00
2023-06-02T00:56:30.258Z,30.00
2023-06-02T00:57:40.944Z,29.99
2023-06-02T00:58:47.690Z,30.00
2023-06-02T00:59:55.015Z,30.00
2023-06-02T01:01:02.025Z,30.00
2023-06-02T01:02:10.987Z,30.00
2023-06-02T01:03:18.342Z,30.00
2023-06-02T01:04:25.461Z,29.99
2023-06-02T01:05:33.285Z,30.00
2023-06-02T01:06:40.160Z,30.00
2023-06-02T01:07:47.182Z,30.00
2023-06-02T01:08:57.466Z,30.00
2023-06-02T01:10:06.136Z,30.00
2023-06-02T01:11:13.622Z,30.00
2023-06-02T01:12:21.544Z,30.00
2023-06-02T01:13:29.467Z,30.00
2023-06-02T01:14:37.519Z,30.00
2023-06-02T01:15:47.443Z,30.00
2023-06-02T01:16:54.241Z,30.00
2023-06-02T01:18:02.091Z,30.01
2023-06-02T01:19:09.726Z,30.00
2023-06-02T01:20:17.067Z,30.00
2023-06-02T01:21:25.541Z,30.00
2023-06-02T01:22:34.577Z,30.01
2023-06-02T01:23:51.834Z,30.01
2023-06-02T01:25:02.494Z,30.00
2023-06-02T01:26:12.247Z,30.01
2023-06-02T01:27:19.105Z,30.01
2023-06-02T01:28:26.977Z,30.01
2023-06-02T01:29:38.018Z,30.00
2023-06-02T01:30:44.955Z,30.01
2023-06-02T01:31:52.748Z,30.01
2023-06-02T01:33:23.455Z,30.01
2023-06-02T01:34:35.227Z,30.01
2023-06-02T01:35:48.373Z,30.00
2023-06-02T01:36:58.136Z,30.01
2023-06-02T01:38:06.139Z,30.00
2023-06-02T01:39:13.428Z,30.01
2023-06-02T01:40:21.218Z,30.01
2023-06-02T01:41:30.248Z,30.01
2023-06-02T01:42:37.416Z,30.01
2023-06-02T01:43:45.218Z,30.01
2023-06-02T01:44:53.102Z,30.01
2023-06-02T01:46:03.128Z,30.01
2023-06-02T01:47:11.139Z,30.01
2023-06-02T01:48:18.239Z,30.02
2023-06-02T01:49:25.300Z,30.01
2023-06-02T01:50:33.460Z,30.02
2023-06-02T01:51:41.291Z,30.01
2023-06-02T01:52:50.003Z,30.02
2023-06-02T01:53:58.271Z,30.02
2023-06-02T01:55:07.047Z,30.02
2023-06-02T01:56:15.193Z,30.02
2023-06-02T01:57:23.609Z,30.02
2023-06-02T01:58:31.723Z,30.02
2023-06-02T01:59:39.576Z,30.02
2023-06-02T02:00:46.528Z,30.02
2023-06-02T02:01:53.425Z,30.02
2023-06-02T02:03:00.564Z,30.03
2023-06-02T02:04:08.135Z,30.03
2023-06-02T02:05:15.615Z,30.03
2023-06-02T02:06:33.411Z,30.03
2023-06-02T02:07:45.429Z,30.02
2023-06-02T02:08:53.601Z,30.02
2023-06-02T02:10:00.720Z,30.02
2023-06-02T02:11:07.626Z,30.02
2023-06-02T02:12:14.389Z,30.03
2023-06-02T02:13:22.504Z,30.03
2023-06-02T02:14:30.175Z,30.03
2023-06-02T02:15:37.463Z,30.02
2023-06-02T02:16:51.595Z,30.03
2023-06-02T02:18:03.463Z,30.03
2023-06-02T02:19:10.746Z,30.02
2023-06-02T02:20:19.625Z,30.03
2023-06-02T02:21:27.741Z,30.03
2023-06-02T02:22:35.408Z,30.03
2023-06-02T02:23:43.116Z,30.03
2023-06-02T02:24:50.029Z,30.03
2023-06-02T02:26:00.120Z,30.03
2023-06-02T02:27:11.123Z,30.03
2023-06-02T02:28:20.106Z,30.03
2023-06-02T02:29:28.741Z,30.03
2023-06-02T02:30:35.700Z,30.04
2023-06-02T02:31:43.563Z,30.04
2023-06-02T02:32:52.640Z,30.04
2023-06-02T02:33:59.416Z,30.03
2023-06-02T02:35:07.580Z,30.04
2023-06-02T02:36:14.502Z,30.04
2023-06-02T02:37:30.225Z,30.04
2023-06-02T02:38:49.468Z,30.03
2023-06-02T02:39:57.323Z,30.03
2023-06-02T02:41:04.654Z,30.03
2023-06-02T02:42:12.129Z,30.04
2023-06-02T02:43:20.525Z,30.03
2023-06-02T02:44:28.493Z,30.03
2023-06-02T02:45:36.330Z,30.04
2023-06-02T02:46:43.372Z,30.04
2023-06-02T02:47:53.529Z,30.03
2023-06-02T02:49:01.179Z,30.04
2023-06-02T02:50:08.633Z,30.04
2023-06-02T02:51:15.843Z,30.04
2023-06-02T02:52:24.259Z,30.05
2023-06-02T02:53:33.787Z,30.05
2023-06-02T02:54:40.908Z,30.05
2023-06-02T02:55:48.006Z,30.05
2023-06-02T02:56:55.876Z,30.05
2023-06-02T02:58:04.371Z,30.05
2023-06-02T02:59:12.105Z,30.05
2023-06-02T03:00:19.503Z,30.05
2023-06-02T03:02:35.283Z,30.05
2023-06-02T03:03:43.935Z,30.05
2023-06-02T03:04:55.094Z,30.05
2023-06-02T03:06:04.384Z,30.05
2023-06-02T03:07:13.907Z,30.05
2023-06-02T03:08:22.935Z,30.06
2023-06-02T03:09:31.762Z,30.05
2023-06-02T03:10:39.433Z,30.05
2023-06-02T03:11:48.363Z,30.05
2023-06-02T03:12:56.827Z,30.05
2023-06-02T03:14:05.024Z,30.06
2023-06-02T03:15:13.350Z,30.06
2023-06-02T03:16:21.036Z,30.06
2023-06-02T03:17:30.750Z,30.06
2023-06-02T03:18:37.792Z,30.06
2023-06-02T03:19:44.854Z,30.06
2023-06-02T03:20:54.267Z,30.06
2023-06-02T03:22:01.680Z,30.06
2023-06-02T03:23:09.410Z,30.06
2023-06-02T03:24:19.014Z,30.06
2023-06-02T03:25:29.400Z,30.06
2023-06-02T03:26:36.397Z,30.06
2023-06-02T03:27:43.625Z,30.06
2023-06-02T03:28:52.179Z,30.05
2023-06-02T03:29:59.339Z,30.06
2023-06-02T03:31:12.889Z,30.06
2023-06-02T03:32:21.079Z,30.06
2023-06-02T03:33:28.541Z,30.06
2023-06-02T03:34:36.438Z,30.06
2023-06-02T03:35:44.864Z,30.06
2023-06-02T03:36:55.582Z,30.06
2023-06-02T03:38:03.561Z,30.06
2023-06-02T03:39:13.235Z,30.06
2023-06-02T03:40:20.987Z,30.06
2023-06-02T03:41:28.852Z,30.06
2023-06-02T03:42:35.551Z,30.07
2023-06-02T03:43:49.180Z,30.07
2023-06-02T03:44:55.984Z,30.07
2023-06-02T03:46:03.074Z,30.06
2023-06-02T03:47:10.352Z,30.07
2023-06-02T03:48:17.033Z,30.07
2023-06-02T03:49:23.845Z,30.07
2023-06-02T03:50:31.625Z,30.07
2023-06-02T03:51:45.230Z,30.07
2023-06-02T03:52:52.293Z,30.07
2023-06-02T03:54:00.121Z,30.07
2023-06-02T03:55:08.817Z,30.07
2023-06-02T03:56:15.453Z,30.07
2023-06-02T03:57:24.421Z,30.08
2023-06-02T03:58:31.760Z,30.07
2023-06-02T03:59:38.446Z,30.07
2023-06-02T04:00:46.444Z,30.08
2023-06-02T04:01:54.184Z,30.08
2023-06-02T04:03:01.769Z,30.08
2023-06-02T04:04:08.962Z,30.08
2023-06-02T04:05:17.989Z,30.08
2023-06-02T04:06:27.229Z,30.08
2023-06-02T04:07:35.397Z,30.08
2023-06-02T04:08:43.160Z,30.08
2023-06-02T04:09:50.681Z,30.08
2023-06-02T04:10:57.541Z,30.08
2023-06-02T04:12:05.665Z,30.09
2023-06-02T04:13:14.751Z,30.09
2023-06-02T04:14:22.699Z,30.09
2023-06-02T04:15:32.385Z,30.09
2023-06-02T04:16:39.624Z,30.09
2023-06-02T04:17:46.699Z,30.09
2023-06-02T04:18:54.573Z,30.10
2023-06-02T04:20:02.389Z,30.10
2023-06-02T04:21:10.782Z,30.10
2023-06-02T04:22:19.512Z,30.11
2023-06-02T04:23:26.492Z,30.11
2023-06-02T04:24:33.521Z,30.11
2023-06-02T04:25:40.281Z,30.11
2023-06-02T04:26:49.498Z,30.10
2023-06-02T04:27:58.178Z,30.11
2023-06-02T04:29:05.714Z,30.11
2023-06-02T04:30:13.141Z,30.11
2023-06-02T04:31:28.870Z,30.11
2023-06-02T04:32:38.563Z,30.11
2023-06-02T04:33:45.604Z,30.11
2023-06-02T04:34:56.610Z,30.11
2023-06-02T04:36:04.361Z,30.11
2023-06-02T04:37:13.589Z,30.11
2023-06-02T04:38:22.025Z,30.11
2023-06-02T04:39:29.254Z,30.11
2023-06-02T04:40:36.101Z,30.11
2023-06-02T04:41:43.502Z,30.11
2023-06-02T04:42:51.990Z,30.12
2023-06-02T04:43:59.200Z,30.12
2023-06-02T04:45:10.350Z,30.12
2023-06-02T04:46:17.257Z,30.12
2023-06-02T04:47:25.228Z,30.12
2023-06-02T04:48:33.505Z,30.13
2023-06-02T04:49:40.936Z,30.13
2023-06-02T04:50:48.684Z,30.13
2023-06-02T04:51:58.427Z,30.13
2023-06-02T04:53:05.866Z,30.13
2023-06-02T04:54:13.129Z,30.13
2023-06-02T04:55:20.575Z,30.13
2023-06-02T04:56:31.021Z,30.13
2023-06-02T04:57:39.033Z,30.13
2023-06-02T04:58:45.615Z,30.13
2023-06-02T04:59:52.977Z,30.14
2023-06-02T05:01:00.259Z,30.13
2023-06-02T05:02:07.858Z,30.14
2023-06-02T05:03:15.664Z,30.14
2023-06-02T05:04:25.379Z,30.14
2023-06-02T05:05:32.537Z,30.14
2023-06-02T05:06:39.605Z,30.14
2023-06-02T05:07:47.406Z,30.14
2023-06-02T05:08:57.856Z,30.14
2023-06-02T05:10:05.856Z,30.14
2023-06-02T05:11:13.179Z,30.14
2023-06-02T05:12:21.223Z,30.14
2023-06-02T05:13:30.528Z,30.14
2023-06-02T05:14:39.250Z,30.14
2023-06-02T05:15:49.132Z,30.14
2023-06-02T05:16:58.460Z,30.15
2023-06-02T05:18:05.701Z,30.15
2023-06-02T05:19:12.607Z,30.15
2023-06-02T05:20:19.481Z,30.15
2023-06-02T05:21:27.011Z,30.15
2023-06-02T05:22:33.773Z,30.15
2023-06-02T05:23:41.775Z,30.15
2023-06-02T05:24:50.291Z,30.15
2023-06-02T05:25:56.861Z,30.15
2023-06-02T05:27:05.607Z,30.15
2023-06-02T05:28:13.040Z,30.15
2023-06-02T05:29:20.083Z,30.15
2023-06-02T05:30:28.034Z,30.15
2023-06-02T05:31:35.549Z,30.15
2023-06-02T05:32:42.852Z,30.15
2023-06-02T05:33:52.101Z,30.16
2023-06-02T05:34:59.095Z,30.16
2023-06-02T05:36:09.899Z,30.15
2023-06-02T05:37:17.467Z,30.16
2023-06-02T05:38:24.642Z,30.16
2023-06-02T05:39:32.082Z,30.16
2023-06-02T05:40:38.859Z,30.16
2023-06-02T05:41:49.724Z,30.16
2023-06-02T05:42:56.929Z,30.16
2023-06-02T05:44:06.985Z,30.16
2023-06-02T05:45:14.352Z,30.16
2023-06-02T05:46:28.366Z,30.16
2023-06-02T05:47:35.459Z,30.17
2023-06-02T05:48:44.035Z,30.17
2023-06-02T05:49:55.622Z,30.17
2023-06-02T05:51:04.219Z,30.17
2023-06-02T05:52:12.158Z,30.17
2023-06-02T05:53:20.195Z,30.16
2023-06-02T05:54:28.390Z,30.16
2023-06-02T05:55:37.555Z,30.17
2023-06-02T05:56:47.271Z,30.17
2023-06-02T05:57:54.726Z,30.17
2023-06-02T05:59:04.216Z,30.17
2023-06-02T06:00:12.398Z,30.17
2023-06-02T06:01:24.224Z,30.17
2023-06-02T06:02:32.526Z,30.17
2023-06-02T06:03:40.649Z,30.17
2023-06-02T06:04:48.533Z,30.17
2023-06-02T06:05:57.321Z,30.17
2023-06-02T06:07:05.899Z,30.17
2023-06-02T06:08:14.320Z,30.17
2023-06-02T06:09:22.709Z,30.17
2023-06-02T06:10:30.914Z,30.17
2023-06-02T06:11:39.983Z,30.17
2023-06-02T06:12:47.957Z,30.17
2023-06-02T06:13:55.943Z,30.18
2023-06-02T06:15:04.729Z,30.18
2023-06-02T06:16:14.158Z,30.17
2023-06-02T06:17:22.136Z,30.18
2023-06-02T06:18:30.614Z,30.18
2023-06-02T06:19:38.250Z,30.18
2023-06-02T06:20:47.587Z,30.18
2023-06-02T06:21:55.502Z,30.18
2023-06-02T06:23:05.890Z,30.18
2023-06-02T06:24:14.358Z,30.18
2023-06-02T06:25:23.121Z,30.18
2023-06-02T06:26:30.943Z,30.19
2023-06-02T06:27:38.078Z,30.18
2023-06-02T06:28:49.072Z,30.18
2023-06-02T06:29:59.797Z,30.18
2023-06-02T06:31:08.099Z,30.18
2023-06-02T06:32:15.803Z,30.18
2023-06-02T06:33:22.539Z,30.18
2023-06-02T06:34:30.255Z,30.18
2023-06-02T06:35:37.895Z,30.18
2023-06-02T06:36:51.299Z,30.19
2023-06-02T06:37:58.673Z,30.18
2023-06-02T06:39:06.718Z,30.18
2023-06-02T06:40:15.391Z,30.18
2023-06-02T06:41:25.246Z,30.19
2023-06-02T06:42:33.899Z,30.19
2023-06-02T06:43:47.701Z,30.19
2023-06-02T06:44:58.088Z,30.18
2023-06-02T06:46:06.520Z,30.19
2023-06-02T06:47:16.603Z,30.19
2023-06-02T06:48:25.129Z,30.19
2023-06-02T06:49:32.907Z,30.19
2023-06-02T06:50:41.382Z,30.19
2023-06-02T06:51:49.921Z,30.19
2023-06-02T06:52:58.724Z,30.19
2023-06-02T06:54:08.579Z,30.19
2023-06-02T06:55:17.760Z,30.19
2023-06-02T06:56:25.066Z,30.19
2023-06-02T06:57:32.558Z,30.20
2023-06-02T06:58:39.927Z,30.20
2023-06-02T06:59:49.690Z,30.20
2023-06-02T07:00:58.076Z,30.20
2023-06-02T07:02:07.238Z,30.20
2023-06-02T07:03:15.141Z,30.20
2023-06-02T07:04:23.124Z,30.19
2023-06-02T07:05:31.295Z,30.20
2023-06-02T07:06:38.555Z,30.21
2023-06-02T07:07:46.457Z,30.20
2023-06-02T07:08:54.574Z,30.20
2023-06-02T07:10:02.511Z,30.20
2023-06-02T07:11:10.050Z,30.21
2023-06-02T07:12:18.080Z,30.21
2023-06-02T07:13:30.711Z,30.20
2023-06-02T07:14:38.478Z,30.20
2023-06-02T07:15:47.081Z,30.21
2023-06-02T07:16:56.729Z,30.21
2023-06-02T07:18:04.406Z,30.21
2023-06-02T07:19:12.724Z,30.22
2023-06-02T07:20:20.680Z,30.22
2023-06-02T07:21:28.549Z,30.22
2023-06-02T07:22:35.689Z,30.22
2023-06-02T07:23:44.799Z,30.21
2023-06-02T07:24:52.557Z,30.22
2023-06-02T07:26:01.346Z,30.22
2023-06-02T07:27:10.327Z,30.22
2023-06-02T07:28:24.448Z,30.22
2023-06-02T07:29:46.066Z,30.22
2023-06-02T07:31:01.561Z,30.21
2023-06-02T07:32:17.517Z,30.21
2023-06-02T07:33:24.854Z,30.21
2023-06-02T07:34:33.006Z,30.22
2023-06-02T07:35:40.649Z,30.22
2023-06-02T07:36:51.596Z,30.22
2023-06-02T07:37:58.592Z,30.22
2023-06-02T07:39:05.777Z,30.22
2023-06-02T07:40:14.131Z,30.22
2023-06-02T07:41:21.775Z,30.22
2023-06-02T07:42:28.515Z,30.22
2023-06-02T07:43:35.756Z,30.22
2023-06-02T07:44:43.272Z,30.23
2023-06-02T07:45:50.634Z,30.23
2023-06-02T07:46:58.137Z,30.22
2023-06-02T07:48:05.749Z,30.23
2023-06-02T07:49:13.758Z,30.23
2023-06-02T07:50:22.367Z,30.23
2023-06-02T07:51:29.923Z,30.23
2023-06-02T07:52:37.278Z,30.23
2023-06-02T07:53:44.694Z,30.23
2023-06-02T07:54:52.542Z,30.23
2023-06-02T07:56:00.119Z,30.23
2023-06-02T07:57:07.594Z,30.23
2023-06-02T07:58:15.240Z,30.24
2023-06-02T07:59:23.254Z,30.24
2023-06-02T08:00:30.256Z,30.23
2023-06-02T08:01:37.515Z,30.23
2023-06-02T08:02:47.024Z,30.23
2023-06-02T08:03:54.299Z,30.24
2023-06-02T08:05:01.940Z,30.24
2023-06-02T08:06:09.645Z,30.23
2023-06-02T08:07:16.104Z,30.24
2023-06-02T08:08:24.072Z,30.24
2023-06-02T08:09:31.870Z,30.24
2023-06-02T08:10:38.558Z,30.25
2023-06-02T08:11:46.122Z,30.25
2023-06-02T08:12:54.614Z,30.25
2023-06-02T08:14:02.122Z,30.25
2023-06-02T08:15:09.763Z,30.26
2023-06-02T08:17:32.143Z,30.25
2023-06-02T08:18:39.843Z,30.25
2023-06-02T08:19:47.984Z,30.25
2023-06-02T08:20:55.750Z,30.25
2023-06-02T08:22:03.288Z,30.26
2023-06-02T08:23:13.576Z,30.25
2023-06-02T08:24:22.895Z,30.25
2023-06-02T08:25:30.289Z,30.26
2023-06-02T08:26:41.867Z,30.25
2023-06-02T08:27:49.981Z,30.26
2023-06-02T08:28:59.674Z,30.26
2023-06-02T08:30:08.168Z,30.26
2023-06-02T08:31:15.628Z,30.25
2023-06-02T08:32:27.084Z,30.26
2023-06-02T08:33:36.003Z,30.26
2023-06-02T08:34:44.996Z,30.25
2023-06-02T08:35:54.419Z,30.26
2023-06-02T08:37:02.864Z,30.26
2023-06-02T08:38:20.056Z,30.26
2023-06-02T08:39:28.202Z,30.26
2023-06-02T08:40:40.370Z,30.25
2023-06-02T08:41:49.342Z,30.25
2023-06-02T08:42:56.665Z,30.26
2023-06-02T08:44:05.342Z,30.26
2023-06-02T08:45:13.027Z,30.26
2023-06-02T08:46:20.739Z,30.26
2023-06-02T08:47:32.691Z,30.26
2023-06-02T08:48:41.791Z,30.26
2023-06-02T08:49:49.405Z,30.26
2023-06-02T08:50:57.620Z,30.26
2023-06-02T08:52:12.801Z,30.26
2023-06-02T08:53:21.488Z,30.27
2023-06-02T08:54:29.966Z,30.27
2023-06-02T08:55:42.924Z,30.26
2023-06-02T08:56:51.803Z,30.26
2023-06-02T08:57:59.625Z,30.27
2023-06-02T08:59:07.556Z,30.26
2023-06-02T09:00:15.570Z,30.26
2023-06-02T09:01:23.098Z,30.27
2023-06-02T09:02:31.306Z,30.27
2023-06-02T09:03:46.222Z,30.27
2023-06-02T09:04:54.960Z,30.27
2023-06-02T09:06:02.059Z,30.27
2023-06-02T09:07:19.185Z,30.27
2023-06-02T09:08:27.728Z,30.27
2023-06-02T09:09:42.618Z,30.27
2023-06-02T09:10:52.374Z,30.27
2023-06-02T09:12:03.426Z,30.27
2023-06-02T09:13:11.939Z,30.27
2023-06-02T09:14:22.296Z,30.27
2023-06-02T09:15:30.462Z,30.27
2023-06-02T09:16:41.533Z,30.27
2023-06-02T09:17:50.556Z,30.27
2023-06-02T09:19:00.422Z,30.27
2023-06-02T09:20:13.461Z,30.27
2023-06-02T09:21:29.597Z,30.28
2023-06-02T09:22:42.751Z,30.27
2023-06-02T09:23:59.884Z,30.27
2023-06-02T09:25:29.562Z,30.27
2023-06-02T09:26:36.761Z,30.26
2023-06-02T09:27:53.833Z,30.27
2023-06-02T09:29:15.329Z,30.27
2023-06-02T09:30:22.654Z,30.27
2023-06-02T09:31:31.209Z,30.27
2023-06-02T09:32:39.351Z,30.27
2023-06-02T09:34:03.615Z,30.27
2023-06-02T09:35:10.687Z,30.27
2023-06-02T09:36:31.583Z,30.27
2023-06-02T09:37:38.214Z,30.27
2023-06-02T09:38:45.837Z,30.27
2023-06-02T09:39:55.313Z,30.27
2023-06-02T09:41:02.492Z,30.27
2023-06-02T09:42:10.172Z,30.27
2023-06-02T09:43:18.529Z,30.27
2023-06-02T09:44:25.972Z,30.28
2023-06-02T09:45:36.819Z,30.28
2023-06-02T09:46:46.222Z,30.28
2023-06-02T09:47:53.707Z,30.28
2023-06-02T09:49:03.207Z,30.29
2023-06-02T09:50:10.931Z,30.28
2023-06-02T09:51:30.108Z,30.28
2023-06-02T09:52:38.346Z,30.28
2023-06-02T09:53:48.742Z,30.28
2023-06-02T09:54:55.440Z,30.28
2023-06-02T09:56:05.015Z,30.28
2023-06-02T09:57:13.816Z,30.28
2023-06-02T09:58:21.745Z,30.29
2023-06-02T09:59:28.867Z,30.29
2023-06-02T10:00:35.823Z,30.29
2023-06-02T10:01:44.059Z,30.29
2023-06-02T10:02:51.758Z,30.29
2023-06-02T10:04:00.591Z,30.29
2023-06-02T10:05:08.160Z,30.29
2023-06-02T10:06:39.739Z,30.29
2023-06-02T10:08:27.354Z,30.28
2023-06-02T10:09:59.718Z,30.27
2023-06-02T10:11:30.674Z,30.27
2023-06-02T10:13:17.676Z,30.27
2023-06-02T10:14:52.987Z,30.26
2023-06-02T10:16:35.657Z,30.26
2023-06-02T10:18:22.936Z,30.26
2023-06-02T10:20:03.102Z,30.25
2023-06-02T10:21:28.297Z,30.26
2023-06-02T10:22:52.990Z,30.26
2023-06-02T10:24:14.749Z,30.26
2023-06-02T10:25:47.050Z,30.26
2023-06-02T10:27:33.094Z,30.26
2023-06-02T10:28:39.893Z,30.25
2023-06-02T10:29:48.138Z,30.26
2023-06-02T10:31:10.961Z,30.26
2023-06-02T10:32:28.979Z,30.26
2023-06-02T10:33:48.302Z,30.26
2023-06-02T10:34:57.426Z,30.27
2023-06-02T10:36:08.234Z,30.27
2023-06-02T10:37:17.614Z,30.28
2023-06-02T10:38:36.931Z,30.28
2023-06-02T10:40:00.471Z,30.28
2023-06-02T10:41:08.557Z,30.28
2023-06-02T10:42:16.644Z,30.28
2023-06-02T10:43:25.489Z,30.29
2023-06-02T10:44:34.473Z,30.29
2023-06-02T10:45:44.060Z,30.29
2023-06-02T10:47:16.082Z,30.29
2023-06-02T10:48:41.451Z,30.29
2023-06-02T10:50:05.818Z,30.29
2023-06-02T10:51:17.632Z,30.29
2023-06-02T10:52:25.324Z,30.29
2023-06-02T10:53:32.558Z,30.30
2023-06-02T10:54:39.749Z,30.30
2023-06-02T10:55:49.559Z,30.30
2023-06-02T10:57:02.778Z,30.30
2023-06-02T10:58:12.555Z,30.30
2023-06-02T10:59:33.892Z,30.30
2023-06-02T11:00:54.865Z,30.30
2023-06-02T11:02:02.171Z,30.30
2023-06-02T11:03:30.424Z,30.31
2023-06-02T11:04:40.738Z,30.30
2023-06-02T11:05:48.229Z,30.30
2023-06-02T11:07:24.287Z,30.30
2023-06-02T11:08:31.764Z,30.30
2023-06-02T11:09:39.272Z,30.30
2023-06-02T11:11:05.784Z,30.30
2023-06-02T11:12:13.947Z,30.30
2023-06-02T11:13:22.745Z,30.30
2023-06-02T11:14:30.804Z,30.30
2023-06-02T11:15:38.225Z,30.31
2023-06-02T11:16:46.880Z,30.31
2023-06-02T11:17:54.453Z,30.31
2023-06-02T11:19:03.227Z,30.32
2023-06-02T11:20:11.595Z,30.31
2023-06-02T11:21:25.983Z,30.31
2023-06-02T11:22:35.354Z,30.32
2023-06-02T11:23:44.662Z,30.32
2023-06-02T11:24:52.442Z,30.31
2023-06-02T11:26:13.191Z,30.32
2023-06-02T11:27:20.626Z,30.32
2023-06-02T11:28:27.479Z,30.32
2023-06-02T11:29:34.615Z,30.31
2023-06-02T11:30:41.687Z,30.32
2023-06-02T11:31:52.298Z,30.32
2023-06-02T11:32:59.743Z,30.32
2023-06-02T11:34:07.340Z,30.32
2023-06-02T11:35:14.944Z,30.32
2023-06-02T11:36:31.835Z,30.32
2023-06-02T11:37:43.679Z,30.31
2023-06-02T11:38:50.994Z,30.31
2023-06-02T11:39:58.085Z,30.31
2023-06-02T11:41:13.885Z,30.31
2023-06-02T11:42:20.736Z,30.31
2023-06-02T11:43:28.122Z,30.31
2023-06-02T11:44:35.151Z,30.31
2023-06-02T11:45:42.330Z,30.31
2023-06-02T11:46:49.242Z,30.31
2023-06-02T11:48:10.862Z,30.31
2023-06-02T11:49:17.850Z,30.31
2023-06-02T11:50:25.497Z,30.31
2023-06-02T11:51:33.109Z,30.31
2023-06-02T11:52:40.165Z,30.31
2023-06-02T11:53:47.877Z,30.31
2023-06-02T11:54:58.374Z,30.31
2023-06-02T11:56:05.404Z,30.31
2023-06-02T11:57:12.213Z,30.31
2023-06-02T11:58:27.430Z,30.31
2023-06-02T11:59:34.066Z,30.31
2023-06-02T12:00:41.115Z,30.31
2023-06-02T12:01:52.804Z,30.31
2023-06-02T12:03:13.389Z,30.31
2023-06-02T12:04:21.594Z,30.31
2023-06-02T12:05:39.062Z,30.30
2023-06-02T12:06:52.923Z,30.30
2023-06-02T12:08:18.491Z,30.30
2023-06-02T12:09:34.890Z,30.30
2023-06-02T12:10:41.903Z,30.30
2023-06-02T12:11:50.120Z,30.30
2023-06-02T12:12:56.537Z,30.30
2023-06-02T12:14:05.255Z,30.30
2023-06-02T12:15:16.687Z,30.30
2023-06-02T12:16:23.915Z,30.30
2023-06-02T12:17:31.756Z,30.31
2023-06-02T12:18:39.228Z,30.30
2023-06-02T12:19:46.690Z,30.30
2023-06-02T12:20:56.463Z,30.31
2023-06-02T12:22:18.703Z,30.31
2023-06-02T12:23:25.582Z,30.31
2023-06-02T12:24:33.328Z,30.30
2023-06-02T12:25:40.613Z,30.31
2023-06-02T12:26:48.232Z,30.31
2023-06-02T12:27:54.953Z,30.31
2023-06-02T12:29:02.621Z,30.31
2023-06-02T12:30:10.571Z,30.30
2023-06-02T12:31:21.055Z,30.31
2023-06-02T12:32:29.037Z,30.31
2023-06-02T12:33:36.819Z,30.31
2023-06-02T12:34:47.823Z,30.32
2023-06-02T12:35:54.916Z,30.31
2023-06-02T12:37:05.769Z,30.31
2023-06-02T12:38:12.506Z,30.32
2023-06-02T12:39:20.461Z,30.32
2023-06-02T12:40:27.993Z,30.31
2023-06-02T12:41:35.198Z,30.31
2023-06-02T12:42:42.070Z,30.31
2023-06-02T12:43:49.269Z,30.31
2023-06-02T12:44:57.889Z,30.31
2023-06-02T12:46:06.154Z,30.32
2023-06-02T12:47:16.418Z,30.32
2023-06-02T12:48:23.579Z,30.31
2023-06-02T12:49:30.528Z,30.31
2023-06-02T12:50:37.277Z,30.32
2023-06-02T12:51:44.072Z,30.32
2023-06-02T12:52:51.669Z,30.31
2023-06-02T12:53:58.722Z,30.32
2023-06-02T12:55:06.664Z,30.32
2023-06-02T12:56:14.456Z,30.32
2023-06-02T12:57:21.497Z,30.31
2023-06-02T12:58:29.473Z,30.32
2023-06-02T12:59:36.310Z,30.32
2023-06-02T13:00:44.411Z,30.32
2023-06-02T13:01:52.237Z,30.32
2023-06-02T13:03:00.297Z,30.32
2023-06-02T13:04:07.562Z,30.32
2023-06-02T13:05:16.046Z,30.32
2023-06-02T13:06:23.008Z,30.32
2023-06-02T13:07:30.605Z,30.32
2023-06-02T13:08:39.987Z,30.32
2023-06-02T13:09:51.044Z,30.32
2023-06-02T13:11:00.946Z,30.32
2023-06-02T13:12:08.702Z,30.32
2023-06-02T13:13:15.885Z,30.32
2023-06-02T13:14:23.530Z,30.32
2023-06-02T13:15:30.913Z,30.32
2023-06-02T13:16:38.035Z,30.31
2023-06-02T13:17:45.057Z,30.32
2023-06-02T13:18:51.955Z,30.32
2023-06-02T13:19:59.302Z,30.32
2023-06-02T13:21:05.983Z,30.32
2023-06-02T13:22:13.301Z,30.32
2023-06-02T13:23:21.181Z,30.32
2023-06-02T13:24:28.866Z,30.32
2023-06-02T13:25:36.607Z,30.32
2023-06-02T13:26:44.669Z,30.32
2023-06-02T13:27:51.596Z,30.32
2023-06-02T13:28:58.791Z,30.32
2023-06-02T13:30:07.331Z,30.32
2023-06-02T13:31:15.375Z,30.32
2023-06-02T13:32:23.726Z,30.32
2023-06-02T13:33:31.436Z,30.32
2023-06-02T13:34:38.390Z,30.32
2023-06-02T13:35:46.096Z,30.32
2023-06-02T13:36:53.585Z,30.32
2023-06-02T13:38:00.390Z,30.32
2023-06-02T13:39:08.050Z,30.32
2023-06-02T13:40:16.838Z,30.33
2023-06-02T13:41:24.339Z,30.33
2023-06-02T13:42:31.534Z,30.33
2023-06-02T13:43:39.104Z,30.33
2023-06-02T13:44:46.999Z,30.33
2023-06-02T13:45:55.072Z,30.33
2023-06-02T13:47:03.557Z,30.33
2023-06-02T13:48:11.925Z,30.33
2023-06-02T13:49:19.438Z,30.33
2023-06-02T13:50:27.232Z,30.33
2023-06-02T13:51:34.566Z,30.33
2023-06-02T13:52:42.752Z,30.32
2023-06-02T13:53:51.224Z,30.33
2023-06-02T13:54:59.116Z,30.33
2023-06-02T13:56:07.260Z,30.32
2023-06-02T13:57:14.607Z,30.33
2023-06-02T13:58:22.283Z,30.33
2023-06-02T13:59:29.222Z,30.33
2023-06-02T14:00:37.457Z,30.33
2023-06-02T14:01:45.841Z,30.33
2023-06-02T14:02:53.284Z,30.33
2023-06-02T14:04:00.705Z,30.33
2023-06-02T14:05:09.984Z,30.33
2023-06-02T14:06:18.156Z,30.33
2023-06-02T14:07:25.688Z,30.33
2023-06-02T14:08:32.940Z,30.33
2023-06-02T14:09:40.344Z,30.33
2023-06-02T14:10:48.275Z,30.33
2023-06-02T14:11:55.733Z,30.33
2023-06-02T14:13:03.873Z,30.33
2023-06-02T14:14:12.954Z,30.33
2023-06-02T14:15:19.912Z,30.33
2023-06-02T14:16:27.797Z,30.33
2023-06-02T14:17:35.887Z,30.33
2023-06-02T14:18:44.893Z,30.33
2023-06-02T14:19:52.510Z,30.33
2023-06-02T14:21:00.101Z,30.33
2023-06-02T14:22:08.079Z,30.33
2023-06-02T14:23:16.046Z,30.33
2023-06-02T14:24:23.882Z,30.33
2023-06-02T14:25:32.431Z,30.33
2023-06-02T14:26:39.611Z,30.33
2023-06-02T14:27:46.755Z,30.32
2023-06-02T14:28:55.248Z,30.33
2023-06-02T14:30:03.325Z,30.33
2023-06-02T14:31:11.490Z,30.33
2023-06-02T14:32:19.410Z,30.33
2023-06-02T14:33:28.120Z,30.32
2023-06-02T14:34:35.346Z,30.33
2023-06-02T14:35:43.833Z,30.33
2023-06-02T14:36:51.929Z,30.33
2023-06-02T14:38:00.995Z,30.33
2023-06-02T14:39:09.128Z,30.33
2023-06-02T14:40:16.529Z,30.33
2023-06-02T14:41:25.863Z,30.33
2023-06-02T14:42:33.012Z,30.33
2023-06-02T14:43:40.485Z,30.32
2023-06-02T14:44:48.451Z,30.33
2023-06-02T14:45:56.533Z,30.32
2023-06-02T14:47:04.712Z,30.32
2023-06-02T14:48:13.597Z,30.32
2023-06-02T14:49:22.244Z,30.33
2023-06-02T14:50:30.706Z,30.33
2023-06-02T14:51:39.490Z,30.33
2023-06-02T14:52:48.225Z,30.33
2023-06-02T14:53:56.119Z,30.33
2023-06-02T14:55:04.455Z,30.32
2023-06-02T14:56:12.757Z,30.33
2023-06-02T14:57:20.654Z,30.33